createdAt,value
2022-11-04T00:01:21.233Z,19.80
2022-11-04T00:03:51.142Z,17.80
2022-11-04T00:06:20.728Z,18.30
2022-11-04T00:08:53.995Z,19.00
2022-11-04T00:11:42.529Z,19.20
2022-11-04T00:14:12.475Z,18.80
2022-11-04T00:17:00.611Z,18.00
2022-11-04T00:19:51.248Z,18.20
2022-11-04T00:22:39.406Z,17.10
2022-11-04T00:25:29.885Z,16.70
2022-11-04T00:28:25.354Z,17.60
2022-11-04T00:31:19.133Z,18.50
2022-11-04T00:33:52.737Z,18.10
2022-11-04T00:36:23.119Z,19.20
2022-11-04T00:38:53.540Z,15.60
2022-11-04T00:41:26.592Z,16.60
2022-11-04T00:43:58.228Z,18.20
2022-11-04T00:46:28.557Z,17.20
2022-11-04T00:48:58.240Z,16.00
2022-11-04T00:51:28.488Z,17.30
2022-11-04T00:53:58.519Z,17.50
2022-11-04T00:56:28.296Z,18.00
2022-11-04T00:59:03.133Z,16.90
2022-11-04T01:01:32.948Z,17.90
2022-11-04T01:04:02.929Z,16.50
2022-11-04T01:06:32.741Z,17.80
2022-11-04T01:09:04.956Z,17.60
2022-11-04T01:11:34.759Z,16.90
2022-11-04T01:14:04.379Z,15.60
2022-11-04T01:16:33.974Z,15.70
2022-11-04T01:19:03.524Z,16.20
2022-11-04T01:21:33.111Z,15.30
2022-11-04T01:24:02.800Z,15.10
2022-11-04T01:26:32.485Z,17.10
2022-11-04T01:29:02.752Z,16.30
2022-11-04T01:31:33.985Z,15.70
2022-11-04T01:34:03.759Z,15.90
2022-11-04T01:36:33.492Z,15.30
2022-11-04T01:39:03.460Z,15.40
2022-11-04T01:41:34.767Z,16.20
2022-11-04T01:44:22.270Z,15.60
2022-11-04T01:46:53.441Z,17.20
2022-11-04T01:49:26.864Z,17.00
2022-11-04T01:52:00.657Z,17.60
2022-11-04T01:54:30.170Z,14.90
2022-11-04T01:57:01.425Z,15.20
2022-11-04T01:59:35.373Z,16.00
2022-11-04T02:02:15.764Z,15.00
2022-11-04T02:04:45.398Z,14.30
2022-11-04T02:07:14.922Z,14.70
2022-11-04T02:09:44.527Z,16.30
2022-11-04T02:12:35.116Z,17.50
2022-11-04T02:15:05.861Z,15.70
2022-11-04T02:17:59.172Z,15.00
2022-11-04T02:20:36.622Z,15.00
2022-11-04T02:24:04.176Z,14.60
2022-11-04T02:27:20.190Z,16.10
2022-11-04T02:30:09.392Z,15.20
2022-11-04T02:33:03.736Z,14.50
2022-11-04T02:35:41.730Z,16.00
2022-11-04T02:38:19.725Z,14.70
2022-11-04T02:40:54.968Z,15.10
2022-11-04T02:43:27.012Z,14.90
2022-11-04T02:46:01.966Z,15.70
2022-11-04T02:48:36.176Z,14.60
2022-11-04T02:51:09.941Z,16.10
2022-11-04T02:53:41.446Z,15.90
2022-11-04T02:56:16.589Z,14.90
2022-11-04T02:58:52.240Z,15.50
2022-11-04T03:01:21.692Z,14.40
2022-11-04T03:03:55.359Z,17.10
2022-11-04T03:06:26.524Z,16.90
2022-11-04T03:08:56.162Z,14.30
2022-11-04T03:11:26.981Z,14.60
2022-11-04T03:13:59.041Z,15.30
2022-11-04T03:16:32.705Z,15.00
2022-11-04T03:19:04.655Z,16.10
2022-11-04T03:21:37.537Z,15.90
2022-11-04T03:24:08.076Z,15.10
2022-11-04T03:26:44.212Z,14.70
2022-11-04T03:29:24.013Z,15.30
2022-11-04T03:32:07.913Z,16.70
2022-11-04T03:34:37.949Z,14.90
2022-11-04T03:37:07.786Z,15.30
2022-11-04T03:39:37.750Z,14.90
2022-11-04T03:42:20.412Z,16.60
2022-11-04T03:44:51.944Z,16.10
2022-11-04T03:47:24.052Z,16.30
2022-11-04T03:49:55.536Z,13.80
2022-11-04T03:52:27.941Z,16.40
2022-11-04T03:54:57.631Z,14.60
2022-11-04T03:57:40.004Z,17.00
2022-11-04T04:00:13.415Z,13.30
2022-11-04T04:03:08.079Z,15.90
2022-11-04T04:05:41.439Z,15.80
2022-11-04T04:08:20.002Z,14.50
2022-11-04T04:11:00.268Z,15.10
2022-11-04T04:13:36.661Z,16.00
2022-11-04T04:16:09.460Z,15.70
2022-11-04T04:18:42.514Z,16.10
2022-11-04T04:21:15.127Z,14.10
2022-11-04T04:24:03.009Z,14.50
2022-11-04T04:26:51.699Z,13.30
2022-11-04T04:29:21.380Z,15.60
2022-11-04T04:31:52.112Z,13.20
2022-11-04T04:34:23.853Z,14.80
2022-11-04T04:36:57.447Z,14.30
2022-11-04T04:39:51.793Z,14.90
2022-11-04T04:42:39.957Z,14.70
2022-11-04T04:45:13.208Z,13.90
2022-11-04T04:47:46.187Z,13.50
2022-11-04T04:50:17.443Z,13.70
2022-11-04T04:52:49.589Z,13.90
2022-11-04T04:55:19.625Z,13.30
2022-11-04T04:57:49.282Z,14.30
2022-11-04T05:00:21.160Z,15.40
2022-11-04T05:02:51.319Z,14.30
2022-11-04T05:05:21.329Z,14.30
2022-11-04T05:07:51.464Z,12.70
2022-11-04T05:10:21.143Z,14.10
2022-11-04T05:13:08.881Z,13.40
2022-11-04T05:15:40.914Z,13.00
2022-11-04T05:18:11.199Z,13.60
2022-11-04T05:20:41.259Z,13.60
2022-11-04T05:23:11.914Z,12.80
2022-11-04T05:25:42.253Z,13.70
2022-11-04T05:28:26.589Z,13.70
2022-11-04T05:30:57.403Z,13.20
2022-11-04T05:33:34.706Z,13.40
2022-11-04T05:36:12.105Z,12.70
2022-11-04T05:38:41.944Z,12.80
2022-11-04T05:41:25.303Z,15.00
2022-11-04T05:43:55.631Z,13.90
2022-11-04T05:46:27.506Z,12.60
2022-11-04T05:49:04.537Z,13.50
2022-11-04T05:51:48.443Z,13.60
2022-11-04T05:54:18.205Z,14.70
2022-11-04T05:56:47.875Z,14.20
2022-11-04T05:59:17.470Z,12.20
2022-11-04T06:01:50.732Z,13.80
2022-11-04T06:04:20.766Z,13.80
2022-11-04T06:06:50.494Z,12.20
2022-11-04T06:09:20.172Z,13.00
2022-11-04T06:11:51.320Z,14.20
2022-11-04T06:14:21.328Z,12.70
2022-11-04T06:16:51.026Z,12.80
2022-11-04T06:19:21.093Z,13.20
2022-11-04T06:21:50.639Z,14.10
2022-11-04T06:24:21.025Z,13.40
2022-11-04T06:26:50.716Z,12.20
2022-11-04T06:29:20.446Z,14.60
2022-11-04T06:31:50.182Z,12.00
2022-11-04T06:34:26.615Z,12.20
2022-11-04T06:36:56.193Z,12.20
2022-11-04T06:39:25.857Z,12.30
2022-11-04T06:41:58.005Z,12.60
2022-11-04T06:44:31.185Z,13.00
2022-11-04T06:47:01.496Z,12.90
2022-11-04T06:49:31.631Z,12.70
2022-11-04T06:52:02.279Z,12.10
2022-11-04T06:54:34.405Z,13.40
2022-11-04T06:57:04.331Z,12.60
2022-11-04T06:59:34.224Z,12.60
2022-11-04T07:02:04.743Z,12.50
2022-11-04T07:04:38.051Z,11.70
2022-11-04T07:07:19.386Z,12.80
2022-11-04T07:09:50.177Z,12.50
2022-11-04T07:12:22.330Z,12.10
2022-11-04T07:14:56.122Z,12.50
2022-11-04T07:17:26.197Z,13.00
2022-11-04T07:19:56.581Z,13.60
2022-11-04T07:22:26.833Z,12.10
2022-11-04T07:24:56.818Z,11.00
2022-11-04T07:27:31.726Z,11.00
2022-11-04T07:30:04.602Z,13.10
2022-11-04T07:32:34.400Z,12.30
2022-11-04T07:35:04.710Z,11.30
2022-11-04T07:37:34.480Z,11.00
2022-11-04T07:40:06.629Z,11.90
2022-11-04T07:42:39.885Z,11.90
2022-11-04T07:45:12.247Z,12.40
2022-11-04T07:47:42.016Z,12.00
2022-11-04T07:50:13.116Z,12.90
2022-11-04T07:52:43.096Z,12.00
2022-11-04T07:55:18.108Z,11.90
2022-11-04T07:57:48.175Z,13.30
2022-11-04T08:00:19.874Z,11.50
2022-11-04T08:02:50.433Z,12.20
2022-11-04T08:05:20.410Z,11.30
2022-11-04T08:07:50.611Z,11.70
2022-11-04T08:10:21.363Z,13.00
2022-11-04T08:12:51.931Z,11.10
2022-11-04T08:15:22.101Z,11.60
2022-11-04T08:17:51.987Z,12.30
2022-11-04T08:20:22.105Z,10.50
2022-11-04T08:22:52.795Z,12.50
2022-11-04T08:25:28.123Z,12.70
2022-11-04T08:28:00.859Z,12.40
2022-11-04T08:30:31.282Z,12.30
2022-11-04T08:33:12.327Z,11.10
2022-11-04T08:35:42.806Z,11.30
2022-11-04T08:38:12.662Z,12.60
2022-11-04T08:40:42.330Z,12.10
2022-11-04T08:43:12.472Z,12.50
2022-11-04T08:45:43.271Z,12.80
2022-11-04T08:48:18.357Z,11.70
2022-11-04T08:50:51.465Z,12.40
2022-11-04T08:53:21.124Z,11.60
2022-11-04T08:55:51.310Z,11.20
2022-11-04T08:58:21.205Z,12.70
2022-11-04T09:00:50.926Z,11.90
2022-11-04T09:03:24.116Z,10.60
2022-11-04T09:06:00.512Z,11.80
2022-11-04T09:08:30.400Z,12.40
2022-11-04T09:11:01.056Z,12.00
2022-11-04T09:13:35.458Z,12.70
2022-11-04T09:16:09.814Z,12.40
2022-11-04T09:18:42.784Z,12.70
2022-11-04T09:21:15.428Z,12.20
2022-11-04T09:23:46.211Z,13.00
2022-11-04T09:26:19.232Z,11.00
2022-11-04T09:28:53.056Z,12.40
2022-11-04T09:31:23.447Z,12.70
2022-11-04T09:34:03.857Z,12.10
2022-11-04T09:36:48.486Z,12.10
2022-11-04T09:39:22.678Z,11.30
2022-11-04T09:42:16.248Z,11.10
2022-11-04T09:45:19.908Z,10.80
2022-11-04T09:48:03.544Z,10.90
2022-11-04T09:50:40.544Z,12.30
2022-11-04T09:53:17.363Z,10.60
2022-11-04T09:55:58.438Z,10.90
2022-11-04T09:58:45.329Z,11.10
2022-11-04T10:01:27.495Z,11.10
2022-11-04T10:04:15.292Z,10.70
2022-11-04T10:07:17.963Z,11.30
2022-11-04T10:10:03.896Z,11.80
2022-11-04T10:13:01.738Z,12.10
2022-11-04T10:15:43.026Z,10.50
2022-11-04T10:18:27.815Z,11.10
2022-11-04T10:21:01.621Z,9.70
2022-11-04T10:23:38.416Z,10.40
2022-11-04T10:26:13.176Z,9.00
2022-11-04T10:28:57.504Z,10.70
2022-11-04T10:31:27.344Z,10.10
2022-11-04T10:34:00.356Z,9.80
2022-11-04T10:36:30.773Z,10.20
2022-11-04T10:39:01.701Z,9.50
2022-11-04T10:44:57.258Z,9.80
2022-11-04T10:47:57.383Z,10.60
2022-11-04T10:50:52.783Z,9.20
2022-11-04T10:53:40.130Z,9.80
2022-11-04T10:56:23.525Z,9.80
2022-11-04T10:58:53.323Z,9.00
2022-11-04T11:01:29.539Z,10.10
2022-11-04T11:04:01.075Z,8.80
2022-11-04T11:06:32.542Z,10.10
2022-11-04T11:09:14.589Z,10.20
2022-11-04T11:12:02.557Z,11.20
2022-11-04T11:14:37.607Z,10.40
2022-11-04T11:17:22.867Z,10.80
2022-11-04T11:19:57.399Z,8.90
2022-11-04T11:22:51.730Z,10.60
2022-11-04T11:25:29.789Z,10.20
2022-11-04T11:28:00.793Z,8.60
2022-11-04T11:30:33.734Z,10.00
2022-11-04T11:33:06.733Z,9.70
2022-11-04T11:35:58.140Z,10.30
2022-11-04T11:38:29.278Z,8.80
2022-11-04T11:41:25.814Z,9.90
2022-11-04T11:44:06.472Z,9.10
2022-11-04T11:46:59.000Z,8.20
2022-11-04T11:49:39.242Z,10.10
2022-11-04T11:52:34.238Z,8.80
2022-11-04T11:55:21.060Z,9.30
2022-11-04T12:00:54.647Z,9.40
2022-11-04T12:09:44.067Z,9.50
2022-11-04T12:12:35.621Z,10.00
2022-11-04T12:15:25.691Z,8.40
2022-11-04T12:18:26.383Z,9.70
2022-11-04T12:21:00.809Z,10.10
2022-11-04T12:23:36.100Z,10.00
2022-11-04T12:26:19.790Z,8.90
2022-11-04T12:29:06.807Z,9.50
2022-11-04T12:31:43.343Z,9.70
2022-11-04T12:34:20.979Z,10.00
2022-11-04T12:37:04.387Z,9.80
2022-11-04T12:40:10.792Z,10.50
2022-11-04T12:42:51.031Z,9.90
2022-11-04T12:45:33.882Z,9.80
2022-11-04T12:48:09.958Z,10.60
2022-11-04T12:51:01.762Z,10.70
2022-11-04T12:54:10.830Z,10.10
2022-11-04T12:56:41.587Z,10.90
2022-11-04T12:59:40.138Z,10.20
2022-11-04T13:02:17.291Z,9.40
2022-11-04T13:04:53.289Z,9.00
2022-11-04T13:07:28.453Z,9.60
2022-11-04T13:10:00.735Z,8.60
2022-11-04T13:12:33.506Z,9.90
2022-11-04T13:15:08.152Z,9.90
2022-11-04T13:17:40.884Z,9.70
2022-11-04T13:20:22.900Z,9.40
2022-11-04T13:22:58.982Z,10.20
2022-11-04T13:25:36.832Z,9.70
2022-11-04T13:28:09.010Z,10.60
2022-11-04T13:30:41.502Z,10.20
2022-11-04T13:33:17.145Z,9.40
2022-11-04T13:35:52.446Z,8.30
2022-11-04T13:38:24.517Z,10.30
2022-11-04T13:41:10.364Z,9.80
2022-11-04T13:43:42.442Z,9.40
2022-11-04T13:46:29.623Z,10.40
2022-11-04T13:49:06.194Z,10.20
2022-11-04T13:51:42.323Z,9.60
2022-11-04T13:54:27.991Z,10.40
2022-11-04T13:57:12.432Z,11.30
2022-11-04T13:59:44.122Z,10.10
2022-11-04T14:02:47.484Z,9.90
2022-11-04T14:06:05.593Z,10.80
2022-11-04T14:08:35.507Z,10.40
2022-11-04T14:11:13.435Z,10.90
2022-11-04T14:14:04.510Z,10.40
2022-11-04T14:16:43.207Z,9.70
2022-11-04T14:20:00.290Z,9.80
2022-11-04T14:22:45.663Z,10.00
2022-11-04T14:25:29.028Z,9.90
2022-11-04T14:28:03.825Z,9.80
2022-11-04T14:30:46.458Z,10.90
2022-11-04T14:33:50.527Z,10.90
2022-11-04T14:36:34.649Z,11.40
2022-11-04T14:39:21.477Z,10.60
2022-11-04T14:41:59.856Z,12.30
2022-11-04T14:44:35.901Z,11.50
2022-11-04T14:47:17.983Z,11.00
2022-11-04T14:49:49.481Z,11.60
2022-11-04T14:52:25.003Z,9.30
2022-11-04T14:54:58.358Z,11.70
2022-11-04T14:57:36.165Z,10.90
2022-11-04T15:00:34.761Z,11.40
2022-11-04T15:03:52.001Z,12.30
2022-11-04T15:06:07.793Z,10.80
2022-11-04T15:08:43.205Z,12.20
2022-11-04T15:11:17.728Z,11.50
2022-11-04T15:13:49.179Z,10.90
2022-11-04T15:16:21.144Z,12.30
2022-11-04T15:18:51.350Z,12.10
2022-11-04T15:21:21.420Z,12.30
2022-11-04T15:23:53.347Z,11.40
2022-11-04T15:26:29.831Z,10.40
2022-11-04T15:29:02.239Z,11.00
2022-11-04T15:31:33.014Z,12.00
2022-11-04T15:34:06.500Z,12.80
2022-11-04T15:36:39.808Z,13.40
2022-11-04T15:39:14.380Z,13.70
2022-11-04T15:42:05.210Z,12.80
2022-11-04T15:44:36.797Z,12.50
2022-11-04T15:47:24.564Z,12.50
2022-11-04T15:50:02.508Z,12.00
2022-11-04T15:52:32.585Z,11.30
2022-11-04T15:55:03.136Z,12.40
2022-11-04T15:57:34.940Z,10.60
2022-11-04T16:00:08.158Z,13.90
2022-11-04T16:02:47.632Z,12.80
2022-11-04T16:05:27.787Z,12.40
2022-11-04T16:08:19.069Z,12.20
2022-11-04T16:10:49.552Z,14.40
2022-11-04T16:13:25.899Z,12.60
2022-11-04T16:16:14.257Z,13.40
2022-11-04T16:18:45.618Z,12.60
2022-11-04T16:21:26.884Z,12.70
2022-11-04T16:24:00.802Z,12.90
2022-11-04T16:26:34.788Z,12.20
2022-11-04T16:29:08.704Z,13.70
2022-11-04T16:31:39.638Z,14.30
2022-11-04T16:34:12.168Z,14.40
2022-11-04T16:36:41.929Z,13.10
2022-11-04T16:39:11.935Z,14.90
2022-11-04T16:41:42.129Z,13.10
2022-11-04T16:44:20.275Z,13.40
2022-11-04T16:46:50.693Z,11.90
2022-11-04T16:49:27.948Z,12.60
2022-11-04T16:52:02.272Z,14.60
2022-11-04T16:54:35.396Z,13.60
2022-11-04T16:57:11.404Z,11.90
2022-11-04T16:59:41.830Z,14.50
2022-11-04T17:02:27.553Z,13.10
2022-11-04T17:04:58.519Z,14.00
2022-11-04T17:07:47.332Z,13.50
2022-11-04T17:10:20.444Z,11.40
2022-11-04T17:12:50.454Z,14.60
2022-11-04T17:15:21.089Z,15.60
2022-11-04T17:17:51.161Z,15.90
2022-11-04T17:20:30.844Z,14.80
2022-11-04T17:23:06.984Z,14.00
2022-11-04T17:25:39.682Z,14.60
2022-11-04T17:28:09.604Z,13.70
2022-11-04T17:30:42.325Z,13.90
2022-11-04T17:33:14.551Z,13.50
2022-11-04T17:35:48.072Z,15.70
2022-11-04T17:38:18.145Z,13.00
2022-11-04T17:41:06.256Z,13.70
2022-11-04T17:43:54.327Z,12.00
2022-11-04T17:46:42.500Z,12.70
2022-11-04T17:49:17.815Z,14.10
2022-11-04T17:51:49.818Z,14.90
2022-11-04T17:54:19.814Z,15.40
2022-11-04T17:56:51.938Z,14.60
2022-11-04T17:59:22.651Z,13.90
2022-11-04T18:01:52.910Z,14.80
2022-11-04T18:04:23.826Z,12.50
2022-11-04T18:06:57.129Z,15.30
2022-11-04T18:09:30.633Z,14.40
2022-11-04T18:12:18.655Z,14.90
2022-11-04T18:14:48.541Z,15.00
2022-11-04T18:17:24.215Z,17.40
2022-11-04T18:19:57.098Z,16.70
2022-11-04T18:22:27.070Z,13.80
2022-11-04T18:24:58.128Z,12.20
2022-11-04T18:27:28.521Z,11.70
2022-11-04T18:30:02.448Z,14.40
2022-11-04T18:32:32.984Z,13.90
2022-11-04T18:35:03.049Z,15.10
2022-11-04T18:37:34.039Z,13.30
2022-11-04T18:40:04.662Z,14.90
2022-11-04T18:42:35.918Z,14.70
2022-11-04T18:45:08.563Z,13.10
2022-11-04T18:47:39.034Z,13.90
2022-11-04T18:50:11.107Z,15.20
2022-11-04T18:52:43.453Z,15.80
2022-11-04T18:55:13.794Z,13.60
2022-11-04T18:57:44.815Z,17.00
2022-11-04T19:00:17.655Z,18.10
2022-11-04T19:02:47.705Z,16.40
2022-11-04T19:05:18.066Z,14.40
2022-11-04T19:07:48.162Z,13.80
2022-11-04T19:10:18.639Z,12.20
2022-11-04T19:13:06.815Z,15.50
2022-11-04T19:15:37.642Z,15.30
2022-11-04T19:18:08.532Z,16.20
2022-11-04T19:20:38.815Z,15.80
2022-11-04T19:23:09.247Z,15.30
2022-11-04T19:25:42.978Z,16.90
2022-11-04T19:31:06.541Z,15.10
2022-11-04T19:33:38.692Z,14.30
2022-11-04T19:36:15.909Z,16.00
2022-11-04T19:38:50.709Z,14.20
2022-11-04T19:41:39.857Z,16.90
2022-11-04T19:44:12.337Z,17.60
2022-11-04T19:46:42.726Z,17.50
2022-11-04T19:49:14.922Z,18.00
2022-11-04T19:51:45.655Z,16.90
2022-11-04T19:54:19.303Z,17.90
2022-11-04T19:56:52.699Z,18.50
2022-11-04T19:59:23.600Z,19.10
2022-11-04T20:01:56.041Z,13.50
2022-11-04T20:04:28.665Z,15.00
2022-11-04T20:07:01.333Z,14.30
2022-11-04T20:09:32.040Z,15.10
2022-11-04T20:12:21.383Z,15.00
2022-11-04T20:14:53.257Z,16.50
2022-11-04T20:17:24.936Z,18.90
2022-11-04T20:19:58.816Z,18.30
2022-11-04T20:22:31.401Z,16.60
2022-11-04T20:25:02.161Z,16.20
2022-11-04T20:27:33.031Z,14.80
2022-11-04T20:30:06.188Z,14.50
2022-11-04T20:32:36.459Z,14.20
2022-11-04T20:35:10.383Z,14.30
2022-11-04T20:37:44.308Z,16.10
2022-11-04T20:40:15.538Z,16.50
2022-11-04T20:42:47.967Z,16.00
2022-11-04T20:45:21.221Z,16.90
2022-11-04T20:47:53.393Z,14.70
2022-11-04T20:50:24.257Z,14.40
2022-11-04T20:52:54.511Z,14.70
2022-11-04T20:55:27.676Z,14.70
2022-11-04T20:57:58.433Z,15.40
2022-11-04T21:00:29.228Z,16.00
2022-11-04T21:03:00.764Z,16.90
2022-11-04T21:05:32.638Z,16.70
2022-11-04T21:08:03.571Z,16.80
2022-11-04T21:10:36.011Z,14.90
2022-11-04T21:13:06.903Z,14.40
2022-11-04T21:15:44.209Z,14.50
2022-11-04T21:18:15.275Z,14.30
2022-11-04T21:20:46.397Z,16.90
2022-11-04T21:23:17.646Z,16.00
2022-11-04T21:25:49.692Z,15.80
2022-11-04T21:28:21.053Z,15.20
2022-11-04T21:30:53.450Z,12.80
2022-11-04T21:33:24.012Z,14.40
2022-11-04T21:35:55.282Z,14.00
2022-11-04T21:38:29.312Z,13.70
2022-11-04T21:41:07.181Z,14.80
2022-11-04T21:43:37.848Z,14.80
2022-11-04T21:46:09.739Z,15.70
2022-11-04T21:48:40.187Z,12.80
2022-11-04T21:51:12.119Z,14.40
2022-11-04T21:53:43.458Z,12.90
2022-11-04T21:56:15.836Z,13.50
2022-11-04T21:58:46.109Z,14.90
2022-11-04T22:01:22.924Z,15.50
2022-11-04T22:03:54.869Z,14.60
2022-11-04T22:06:30.438Z,14.30
2022-11-04T22:09:12.470Z,14.10
2022-11-04T22:11:43.092Z,13.50
2022-11-04T22:14:14.425Z,12.70
2022-11-04T22:16:45.074Z,12.90
2022-11-04T22:19:15.719Z,14.50
2022-11-04T22:21:47.106Z,14.40
2022-11-04T22:24:18.982Z,14.40
2022-11-04T22:26:50.461Z,14.70
2022-11-04T22:29:22.091Z,15.10
2022-11-04T22:31:52.398Z,13.90
2022-11-04T22:34:24.788Z,15.50
2022-11-04T22:36:55.812Z,14.30
2022-11-04T22:39:26.370Z,13.70
2022-11-04T22:41:57.257Z,12.60
2022-11-04T22:44:28.320Z,14.60
2022-11-04T22:46:58.495Z,15.30
2022-11-04T22:49:28.892Z,15.00
2022-11-04T22:51:59.585Z,16.00
2022-11-04T22:54:30.250Z,12.90
2022-11-04T22:57:00.863Z,13.40
2022-11-04T22:59:31.588Z,13.10
2022-11-04T23:02:02.940Z,15.10
2022-11-04T23:04:33.772Z,14.40
2022-11-04T23:07:05.012Z,13.70
2022-11-04T23:09:55.073Z,13.90
2022-11-04T23:12:43.532Z,16.40
2022-11-04T23:15:31.907Z,12.90
2022-11-04T23:18:23.401Z,12.90
2022-11-04T23:21:14.389Z,12.90
2022-11-04T23:24:03.133Z,14.30
2022-11-04T23:26:35.142Z,13.80
2022-11-04T23:29:24.182Z,17.30
2022-11-04T23:31:54.420Z,13.00
2022-11-04T23:34:42.975Z,13.30
2022-11-04T23:37:13.309Z,13.80
2022-11-04T23:39:47.469Z,14.20
2022-11-04T23:42:20.569Z,15.50
2022-11-04T23:45:10.524Z,15.80
2022-11-04T23:48:00.707Z,14.10
2022-11-04T23:50:51.753Z,15.30
2022-11-04T23:53:40.819Z,14.00
2022-11-04T23:56:30.445Z,13.50
2022-11-04T23:59:18.261Z,14.20
